createdAt,value
2022-09-25T00:01:06.626Z,5.30
2022-09-25T00:03:34.470Z,5.36
2022-09-25T00:06:06.036Z,5.43
2022-09-25T00:08:34.501Z,5.42
2022-09-25T00:11:07.037Z,5.17
2022-09-25T00:13:35.677Z,5.20
2022-09-25T00:16:05.758Z,5.14
2022-09-25T00:18:33.409Z,4.98
2022-09-25T00:21:01.243Z,5.04
2022-09-25T00:23:28.774Z,5.11
2022-09-25T00:25:57.271Z,5.04
2022-09-25T00:28:25.272Z,4.95
2022-09-25T00:30:52.927Z,4.91
2022-09-25T00:33:22.192Z,5.01
2022-09-25T00:35:50.008Z,5.07
2022-09-25T00:38:17.744Z,4.94
2022-09-25T00:40:45.349Z,4.82
2022-09-25T00:43:14.839Z,4.82
2022-09-25T00:45:43.658Z,4.76
2022-09-25T00:48:14.942Z,4.84
2022-09-25T00:50:51.258Z,4.87
2022-09-25T00:53:22.209Z,4.74
2022-09-25T00:55:50.452Z,4.72
2022-09-25T00:58:22.660Z,4.76
2022-09-25T01:00:52.172Z,4.76
2022-09-25T01:03:21.337Z,4.71
2022-09-25T01:05:52.251Z,4.67
2022-09-25T01:08:23.408Z,4.73
2022-09-25T01:10:52.245Z,4.80
2022-09-25T01:13:20.853Z,4.85
2022-09-25T01:15:56.629Z,4.90
2022-09-25T01:18:36.543Z,4.94
2022-09-25T01:21:27.728Z,4.92
2022-09-25T01:24:23.718Z,5.02
2022-09-25T01:27:37.301Z,4.99
2022-09-25T01:30:10.333Z,4.93
2022-09-25T01:32:50.411Z,5.10
2022-09-25T01:35:25.995Z,5.14
2022-09-25T01:37:57.885Z,5.08
2022-09-25T01:40:28.952Z,4.98
2022-09-25T01:43:04.728Z,4.98
2022-09-25T01:45:41.062Z,5.01
2022-09-25T01:48:10.689Z,5.19
2022-09-25T01:50:44.643Z,5.13
2022-09-25T01:53:18.193Z,5.17
2022-09-25T01:55:49.370Z,5.27
2022-09-25T01:58:19.321Z,5.28
2022-09-25T02:00:54.268Z,5.32
2022-09-25T02:03:27.236Z,5.33
2022-09-25T02:06:00.462Z,5.18
2022-09-25T02:08:32.340Z,5.25
2022-09-25T02:11:03.441Z,5.27
2022-09-25T02:13:36.248Z,5.26
2022-09-25T02:16:11.585Z,5.26
2022-09-25T02:18:39.713Z,5.29
2022-09-25T02:21:17.627Z,5.19
2022-09-25T02:23:53.080Z,5.09
2022-09-25T02:26:27.328Z,5.01
2022-09-25T02:28:56.820Z,4.82
2022-09-25T02:31:29.681Z,4.86
2022-09-25T02:33:57.538Z,4.80
2022-09-25T02:36:25.313Z,4.93
2022-09-25T02:38:55.680Z,4.99
2022-09-25T02:41:40.258Z,5.00
2022-09-25T02:44:16.820Z,4.90
2022-09-25T02:47:02.282Z,4.81
2022-09-25T02:49:38.024Z,4.80
2022-09-25T02:52:12.049Z,4.82
2022-09-25T02:54:46.166Z,4.76
2022-09-25T02:57:23.780Z,4.63
2022-09-25T02:59:56.168Z,4.60
2022-09-25T03:02:27.987Z,4.53
2022-09-25T03:04:56.859Z,4.44
2022-09-25T03:07:24.980Z,4.32
2022-09-25T03:09:56.013Z,4.38
2022-09-25T03:12:23.772Z,4.34
2022-09-25T03:14:51.336Z,4.44
2022-09-25T03:17:18.912Z,4.36
2022-09-25T03:19:51.304Z,4.37
2022-09-25T03:22:18.843Z,4.32
2022-09-25T03:24:46.921Z,4.31
2022-09-25T03:27:14.902Z,4.20
2022-09-25T03:29:42.594Z,4.14
2022-09-25T03:32:10.129Z,4.14
2022-09-25T03:34:37.919Z,4.04
2022-09-25T03:37:07.053Z,4.05
2022-09-25T03:39:34.694Z,4.06
2022-09-25T03:42:02.494Z,3.92
2022-09-25T03:44:31.017Z,3.76
2022-09-25T03:46:58.614Z,3.91
2022-09-25T03:49:26.562Z,3.81
2022-09-25T03:51:54.268Z,3.82
2022-09-25T03:54:24.643Z,3.90
2022-09-25T03:56:52.485Z,3.91
2022-09-25T03:59:20.064Z,3.89
2022-09-25T04:01:47.833Z,3.92
2022-09-25T04:04:15.686Z,3.90
2022-09-25T04:06:43.248Z,3.93
2022-09-25T04:09:11.297Z,3.98
2022-09-25T04:11:40.821Z,4.06
2022-09-25T04:14:08.649Z,4.09
2022-09-25T04:16:36.846Z,4.12
2022-09-25T04:19:04.790Z,4.12
2022-09-25T04:21:32.737Z,4.16
2022-09-25T04:24:00.589Z,4.27
2022-09-25T04:26:28.509Z,4.33
2022-09-25T04:28:57.470Z,4.35
2022-09-25T04:31:25.114Z,4.36
2022-09-25T04:33:52.949Z,4.43
2022-09-25T04:36:21.178Z,4.54
2022-09-25T04:38:48.794Z,4.66
2022-09-25T04:41:17.500Z,4.77
2022-09-25T04:43:45.238Z,4.88
2022-09-25T04:46:21.419Z,4.97
2022-09-25T04:48:50.527Z,5.19
2022-09-25T04:51:18.256Z,5.39
2022-09-25T04:53:45.825Z,5.52
2022-09-25T04:56:16.128Z,5.70
2022-09-25T04:58:46.142Z,5.91
2022-09-25T05:01:17.611Z,6.08
2022-09-25T05:03:48.284Z,6.28
2022-09-25T05:06:16.328Z,6.49
2022-09-25T05:08:44.164Z,6.71
2022-09-25T05:11:11.811Z,6.86
2022-09-25T05:13:40.515Z,7.05
2022-09-25T05:16:08.364Z,7.20
2022-09-25T05:18:37.466Z,7.33
2022-09-25T05:21:06.810Z,7.42
2022-09-25T05:23:34.927Z,7.48
2022-09-25T05:26:03.115Z,7.55
2022-09-25T05:28:32.138Z,7.64
2022-09-25T05:31:00.514Z,7.69
2022-09-25T05:33:28.422Z,7.78
2022-09-25T05:36:00.862Z,7.90
2022-09-25T05:38:28.655Z,8.02
2022-09-25T05:41:00.625Z,8.11
2022-09-25T05:43:28.557Z,8.25
2022-09-25T05:45:56.431Z,8.34
2022-09-25T05:48:24.362Z,8.57
2022-09-25T05:50:53.376Z,8.74
2022-09-25T05:53:23.050Z,8.89
2022-09-25T05:55:52.247Z,8.95
2022-09-25T05:58:20.273Z,9.16
2022-09-25T06:00:47.955Z,9.36
2022-09-25T06:03:16.728Z,9.63
2022-09-25T06:05:44.574Z,9.92
2022-09-25T06:08:14.616Z,10.15
2022-09-25T06:10:44.141Z,10.41
2022-09-25T06:13:11.818Z,10.65
2022-09-25T06:15:42.280Z,10.80
2022-09-25T06:18:09.961Z,10.95
2022-09-25T06:20:37.727Z,11.13
2022-09-25T06:23:05.618Z,11.25
2022-09-25T06:25:33.214Z,11.38
2022-09-25T06:28:04.809Z,11.48
2022-09-25T06:30:35.743Z,11.57
2022-09-25T06:33:04.998Z,11.70
2022-09-25T06:35:32.835Z,11.85
2022-09-25T06:38:01.781Z,12.03
2022-09-25T06:40:31.592Z,12.16
2022-09-25T06:43:00.085Z,12.30
2022-09-25T06:45:31.860Z,12.39
2022-09-25T06:48:05.234Z,12.54
2022-09-25T06:50:39.936Z,12.69
2022-09-25T06:53:08.303Z,12.81
2022-09-25T06:55:36.092Z,12.92
2022-09-25T06:58:05.568Z,13.04
2022-09-25T07:00:35.255Z,13.15
2022-09-25T07:03:02.930Z,13.28
2022-09-25T07:05:31.164Z,13.41
2022-09-25T07:07:58.751Z,13.54
2022-09-25T07:10:26.697Z,13.61
2022-09-25T07:12:55.112Z,13.78
2022-09-25T07:15:23.252Z,13.94
2022-09-25T07:17:52.588Z,14.11
2022-09-25T07:20:20.312Z,14.24
2022-09-25T07:22:48.210Z,14.46
2022-09-25T07:25:16.067Z,14.61
2022-09-25T07:27:43.878Z,14.73
2022-09-25T07:30:12.160Z,14.87
2022-09-25T07:32:40.016Z,14.95
2022-09-25T07:35:11.132Z,15.05
2022-09-25T07:37:39.079Z,15.16
2022-09-25T07:40:07.875Z,15.29
2022-09-25T07:42:35.801Z,15.41
2022-09-25T07:45:03.633Z,15.57
2022-09-25T07:47:31.792Z,15.77
2022-09-25T07:49:59.929Z,15.86
2022-09-25T07:52:29.030Z,15.96
2022-09-25T07:54:56.595Z,16.08
2022-09-25T07:57:24.544Z,16.14
2022-09-25T07:59:52.724Z,16.18
2022-09-25T08:02:21.334Z,16.22
2022-09-25T08:04:48.999Z,16.30
2022-09-25T08:07:16.647Z,16.45
2022-09-25T08:09:45.680Z,16.52
2022-09-25T08:12:13.427Z,16.55
2022-09-25T08:14:41.484Z,16.59
2022-09-25T08:17:09.147Z,16.73
2022-09-25T08:19:37.620Z,16.81
2022-09-25T08:22:05.257Z,16.92
2022-09-25T08:24:33.041Z,16.98
2022-09-25T08:27:02.096Z,17.07
2022-09-25T08:29:29.823Z,17.15
2022-09-25T08:31:58.008Z,17.22
2022-09-25T08:34:40.664Z,17.33
2022-09-25T08:37:09.538Z,17.39
2022-09-25T08:39:37.552Z,17.45
2022-09-25T08:42:06.940Z,17.54
2022-09-25T08:44:39.975Z,17.62
2022-09-25T08:47:19.023Z,17.74
2022-09-25T08:50:01.441Z,17.81
2022-09-25T08:52:31.086Z,17.92
2022-09-25T08:54:59.143Z,18.07
2022-09-25T08:57:33.013Z,18.16
2022-09-25T09:00:04.756Z,18.23
2022-09-25T09:02:41.035Z,18.26
2022-09-25T09:05:17.298Z,18.49
2022-09-25T09:07:54.392Z,18.49
2022-09-25T09:10:30.410Z,18.51
2022-09-25T09:13:05.696Z,18.63
2022-09-25T09:15:37.271Z,18.65
2022-09-25T09:18:16.935Z,18.81
2022-09-25T09:20:50.953Z,18.87
2022-09-25T09:23:20.959Z,18.93
2022-09-25T09:26:02.032Z,19.09
2022-09-25T09:29:06.370Z,19.16
2022-09-25T09:31:43.812Z,18.98
2022-09-25T09:34:53.479Z,18.87
2022-09-25T09:37:27.041Z,18.85
2022-09-25T09:40:05.834Z,18.77
2022-09-25T09:42:42.262Z,18.60
2022-09-25T09:45:16.979Z,18.54
2022-09-25T09:47:56.107Z,18.66
2022-09-25T09:50:38.986Z,18.47
2022-09-25T09:53:19.377Z,18.51
2022-09-25T09:55:51.051Z,18.42
2022-09-25T09:58:23.882Z,18.79
2022-09-25T10:00:53.183Z,18.71
2022-09-25T10:03:24.716Z,18.74
2022-09-25T10:05:57.229Z,18.66
2022-09-25T10:08:25.531Z,18.55
2022-09-25T10:10:55.063Z,18.62
2022-09-25T10:13:29.980Z,18.82
2022-09-25T10:16:02.501Z,18.87
2022-09-25T10:18:37.520Z,19.18
2022-09-25T10:21:11.271Z,19.23
2022-09-25T10:23:41.234Z,19.32
2022-09-25T10:26:24.702Z,19.29
2022-09-25T10:28:53.001Z,19.10
2022-09-25T10:31:22.154Z,18.94
2022-09-25T10:34:05.602Z,18.87
2022-09-25T10:36:37.967Z,18.81
2022-09-25T10:39:42.979Z,18.72
2022-09-25T10:42:32.112Z,18.98
2022-09-25T10:44:59.987Z,19.15
2022-09-25T10:47:31.526Z,19.11
2022-09-25T10:50:12.411Z,19.13
2022-09-25T10:52:48.462Z,19.23
2022-09-25T10:55:23.393Z,19.35
2022-09-25T10:57:57.818Z,19.49
2022-09-25T11:00:26.734Z,19.55
2022-09-25T11:02:58.788Z,19.65
2022-09-25T11:05:29.781Z,19.60
2022-09-25T11:08:00.378Z,19.58
2022-09-25T11:10:31.010Z,19.74
2022-09-25T11:13:00.055Z,19.71
2022-09-25T11:15:27.846Z,19.74
2022-09-25T11:17:57.855Z,19.50
2022-09-25T11:20:28.240Z,19.39
2022-09-25T11:23:17.572Z,19.35
2022-09-25T11:25:53.482Z,19.30
2022-09-25T11:28:29.008Z,19.35
2022-09-25T11:31:02.724Z,19.42
2022-09-25T11:33:44.351Z,19.53
2022-09-25T11:36:19.304Z,19.57
2022-09-25T11:38:48.932Z,19.54
2022-09-25T11:41:26.007Z,19.53
2022-09-25T11:44:07.750Z,19.59
2022-09-25T11:46:44.185Z,19.70
2022-09-25T11:49:20.864Z,19.69
2022-09-25T11:52:19.814Z,19.62
2022-09-25T11:55:11.922Z,19.60
2022-09-25T12:01:29.982Z,19.52
2022-09-25T12:04:14.648Z,19.57
2022-09-25T12:07:10.632Z,19.61
2022-09-25T12:09:53.253Z,19.57
2022-09-25T12:12:30.641Z,19.40
2022-09-25T12:15:10.385Z,19.30
2022-09-25T12:17:48.948Z,19.40
2022-09-25T12:20:26.909Z,19.42
2022-09-25T12:23:12.504Z,19.43
2022-09-25T12:25:53.088Z,19.41
2022-09-25T12:28:30.838Z,19.55
2022-09-25T12:31:07.558Z,19.55
2022-09-25T12:33:44.781Z,19.56
2022-09-25T12:36:17.121Z,19.63
2022-09-25T12:38:52.812Z,19.63
2022-09-25T12:41:27.010Z,19.47
2022-09-25T12:44:00.603Z,19.38
2022-09-25T12:46:34.177Z,19.33
2022-09-25T12:49:09.835Z,19.32
2022-09-25T12:51:41.139Z,19.31
2022-09-25T12:54:15.620Z,19.27
2022-09-25T12:56:50.334Z,19.30
2022-09-25T12:59:24.236Z,19.28
2022-09-25T13:02:01.754Z,19.32
2022-09-25T13:04:49.454Z,19.40
2022-09-25T13:07:24.708Z,19.45
2022-09-25T13:09:53.981Z,19.49
2022-09-25T13:12:33.865Z,19.39
2022-09-25T13:15:07.308Z,19.36
2022-09-25T13:17:35.420Z,19.27
2022-09-25T13:20:40.141Z,19.29
2022-09-25T13:23:11.384Z,19.18
2022-09-25T13:25:44.948Z,19.14
2022-09-25T13:28:20.425Z,19.04
2022-09-25T13:31:09.267Z,19.05
2022-09-25T13:33:44.200Z,19.06
2022-09-25T13:36:43.232Z,18.97
2022-09-25T13:39:26.183Z,19.05
2022-09-25T13:41:59.482Z,18.98
2022-09-25T13:44:50.059Z,18.93
2022-09-25T13:47:52.606Z,18.84
2022-09-25T13:50:28.882Z,18.84
2022-09-25T13:53:21.756Z,18.78
2022-09-25T13:56:16.638Z,18.73
2022-09-25T13:59:19.676Z,18.65
2022-09-25T14:01:52.217Z,18.64
2022-09-25T14:04:28.186Z,18.59
2022-09-25T14:07:04.759Z,18.49
2022-09-25T14:09:34.794Z,18.44
2022-09-25T14:12:10.039Z,18.33
2022-09-25T14:14:44.548Z,18.27
2022-09-25T14:17:16.306Z,18.26
2022-09-25T14:19:47.498Z,18.18
2022-09-25T14:22:20.345Z,18.12
2022-09-25T14:24:48.077Z,18.02
2022-09-25T14:27:22.256Z,17.93
2022-09-25T14:29:50.275Z,17.85
2022-09-25T14:32:54.518Z,17.74
2022-09-25T14:35:34.332Z,17.71
2022-09-25T14:38:17.034Z,17.64
2022-09-25T14:41:00.144Z,17.65
2022-09-25T14:43:45.660Z,17.59
2022-09-25T14:46:15.304Z,17.56
2022-09-25T14:48:48.911Z,17.45
2022-09-25T14:51:25.757Z,17.36
2022-09-25T14:53:59.007Z,17.39
2022-09-25T14:56:30.239Z,17.33
2022-09-25T14:59:01.927Z,17.24
2022-09-25T15:01:31.952Z,17.17
2022-09-25T15:04:04.051Z,17.12
2022-09-25T15:06:33.325Z,17.07
2022-09-25T15:09:01.665Z,17.04
2022-09-25T15:11:40.777Z,16.89
2022-09-25T15:14:16.652Z,16.87
2022-09-25T15:16:44.670Z,16.83
2022-09-25T15:19:19.190Z,16.76
2022-09-25T15:21:48.370Z,16.66
2022-09-25T15:24:19.369Z,16.45
2022-09-25T15:26:50.502Z,16.48
2022-09-25T15:29:21.737Z,16.45
2022-09-25T15:31:51.144Z,16.35
2022-09-25T15:34:25.430Z,16.29
2022-09-25T15:36:54.243Z,16.22
2022-09-25T15:39:23.930Z,16.20
2022-09-25T15:41:52.051Z,16.05
2022-09-25T15:44:21.863Z,15.99
2022-09-25T15:46:51.220Z,15.96
2022-09-25T15:49:24.906Z,15.90
2022-09-25T15:51:57.536Z,15.84
2022-09-25T15:54:35.871Z,15.77
2022-09-25T15:57:07.328Z,15.69
2022-09-25T15:59:39.475Z,15.68
2022-09-25T16:02:18.429Z,15.59
2022-09-25T16:04:49.782Z,15.55
2022-09-25T16:07:24.520Z,15.45
2022-09-25T16:09:53.310Z,15.38
2022-09-25T16:12:27.013Z,15.35
2022-09-25T16:14:56.146Z,15.32
2022-09-25T16:17:32.831Z,15.24
2022-09-25T16:20:04.497Z,15.24
2022-09-25T16:22:44.735Z,15.20
2022-09-25T16:25:17.233Z,15.17
2022-09-25T16:27:45.953Z,15.09
2022-09-25T16:30:18.090Z,15.09
2022-09-25T16:32:48.256Z,15.05
2022-09-25T16:35:24.859Z,15.06
2022-09-25T16:37:54.360Z,15.01
2022-09-25T16:40:27.829Z,14.97
2022-09-25T16:42:57.615Z,14.97
2022-09-25T16:45:26.913Z,14.93
2022-09-25T16:47:55.239Z,14.88
2022-09-25T16:50:22.892Z,14.84
2022-09-25T16:52:50.860Z,14.84
2022-09-25T16:55:23.343Z,14.83
2022-09-25T16:57:52.578Z,14.83
2022-09-25T17:00:24.168Z,14.85
2022-09-25T17:02:52.820Z,14.84
2022-09-25T17:05:22.839Z,14.87
2022-09-25T17:07:52.147Z,14.89
2022-09-25T17:10:23.960Z,14.90
2022-09-25T17:12:54.480Z,14.95
2022-09-25T17:15:25.170Z,14.95
2022-09-25T17:17:53.544Z,14.97
2022-09-25T17:20:22.429Z,14.94
2022-09-25T17:22:50.802Z,14.99
2022-09-25T17:25:30.243Z,15.02
2022-09-25T17:27:58.008Z,15.07
2022-09-25T17:30:25.669Z,15.13
2022-09-25T17:32:53.503Z,15.13
2022-09-25T17:35:40.152Z,15.17
2022-09-25T17:38:08.475Z,15.18
2022-09-25T17:40:38.006Z,15.15
2022-09-25T17:43:09.018Z,15.14
2022-09-25T17:45:44.604Z,15.15
2022-09-25T17:48:12.268Z,15.14
2022-09-25T17:50:40.268Z,15.15
2022-09-25T17:53:16.111Z,15.15
2022-09-25T17:55:48.784Z,15.12
2022-09-25T17:58:19.010Z,15.10
2022-09-25T18:00:46.830Z,15.11
2022-09-25T18:03:16.005Z,15.07
2022-09-25T18:05:44.675Z,15.06
2022-09-25T18:08:12.941Z,15.05
2022-09-25T18:10:41.770Z,15.02
2022-09-25T18:13:15.296Z,14.99
2022-09-25T18:15:48.294Z,14.98
2022-09-25T18:18:16.442Z,14.93
2022-09-25T18:20:44.051Z,14.96
2022-09-25T18:23:11.654Z,14.92
2022-09-25T18:25:41.295Z,14.91
2022-09-25T18:28:08.917Z,14.89
2022-09-25T18:30:38.462Z,14.88
2022-09-25T18:33:06.149Z,14.87
2022-09-25T18:35:33.928Z,14.85
2022-09-25T18:38:01.525Z,14.88
2022-09-25T18:40:29.417Z,14.87
2022-09-25T18:42:57.891Z,14.87
2022-09-25T18:45:25.523Z,14.87
2022-09-25T18:47:54.561Z,14.88
2022-09-25T18:50:22.272Z,14.91
2022-09-25T18:52:49.811Z,14.93
2022-09-25T18:55:17.527Z,14.93
2022-09-25T18:57:45.173Z,14.94
2022-09-25T19:00:13.126Z,14.91
2022-09-25T19:02:41.150Z,14.92
2022-09-25T19:05:10.331Z,14.91
2022-09-25T19:07:38.002Z,14.93
2022-09-25T19:10:06.883Z,14.91
2022-09-25T19:12:35.156Z,14.91
2022-09-25T19:15:05.689Z,14.93
2022-09-25T19:17:36.242Z,14.95
2022-09-25T19:20:04.722Z,14.98
2022-09-25T19:22:33.800Z,14.98
2022-09-25T19:25:01.888Z,15.00
2022-09-25T19:27:30.758Z,15.02
2022-09-25T19:29:58.438Z,15.02
2022-09-25T19:32:26.309Z,15.08
2022-09-25T19:34:56.041Z,15.11
2022-09-25T19:37:23.605Z,15.14
2022-09-25T19:39:52.883Z,15.17
2022-09-25T19:42:21.373Z,15.19
2022-09-25T19:44:49.412Z,15.16
2022-09-25T19:47:17.124Z,15.20
2022-09-25T19:49:44.772Z,15.20
2022-09-25T19:52:12.342Z,15.18
2022-09-25T19:54:40.213Z,15.20
2022-09-25T19:57:09.471Z,15.19
2022-09-25T19:59:37.554Z,15.17
2022-09-25T20:02:05.619Z,15.19
2022-09-25T20:04:33.435Z,15.18
2022-09-25T20:07:00.962Z,15.20
2022-09-25T20:09:28.779Z,15.19
2022-09-25T20:11:56.635Z,15.19
2022-09-25T20:14:27.091Z,15.18
2022-09-25T20:16:55.472Z,15.15
2022-09-25T20:19:23.096Z,15.12
2022-09-25T20:21:51.397Z,15.11
2022-09-25T20:24:19.629Z,15.09
2022-09-25T20:26:47.647Z,15.04
2022-09-25T20:29:16.372Z,15.07
2022-09-25T20:31:46.196Z,15.00
2022-09-25T20:34:16.013Z,14.99
2022-09-25T20:36:45.233Z,14.96
2022-09-25T20:39:18.198Z,14.93
2022-09-25T20:41:48.434Z,14.93
2022-09-25T20:44:16.362Z,14.92
2022-09-25T20:46:45.645Z,14.89
2022-09-25T20:49:13.395Z,14.90
2022-09-25T20:51:41.284Z,14.91
2022-09-25T20:54:10.062Z,14.90
2022-09-25T20:56:39.251Z,14.87
2022-09-25T20:59:07.544Z,14.82
2022-09-25T21:01:37.903Z,14.86
2022-09-25T21:04:08.616Z,14.85
2022-09-25T21:06:37.761Z,14.83
2022-09-25T21:09:07.983Z,14.80
2022-09-25T21:11:36.050Z,14.78
2022-09-25T21:14:04.626Z,14.73
2022-09-25T21:16:33.372Z,14.79
2022-09-25T21:19:03.771Z,14.80
2022-09-25T21:21:33.648Z,14.77
2022-09-25T21:24:01.949Z,14.74
2022-09-25T21:26:31.211Z,14.74
2022-09-25T21:29:01.764Z,14.74
2022-09-25T21:31:31.234Z,14.72
2022-09-25T21:33:59.776Z,14.75
2022-09-25T21:36:30.484Z,14.76
2022-09-25T21:39:00.734Z,14.77
2022-09-25T21:41:30.336Z,14.77
2022-09-25T21:43:59.850Z,14.81
2022-09-25T21:46:28.804Z,14.84
2022-09-25T21:48:58.498Z,14.88
2022-09-25T21:51:29.380Z,14.91
2022-09-25T21:53:57.307Z,14.91
2022-09-25T21:56:27.416Z,14.92
2022-09-25T21:58:56.727Z,14.98
2022-09-25T22:01:26.315Z,14.99
2022-09-25T22:03:56.434Z,15.01
2022-09-25T22:06:26.114Z,15.01
2022-09-25T22:08:55.673Z,15.03
2022-09-25T22:11:27.942Z,15.00
2022-09-25T22:13:56.637Z,15.02
2022-09-25T22:16:27.060Z,15.03
2022-09-25T22:18:57.666Z,15.02
2022-09-25T22:21:27.034Z,15.04
2022-09-25T22:23:55.269Z,15.06
2022-09-25T22:26:24.006Z,15.07
2022-09-25T22:28:53.228Z,15.09
2022-09-25T22:31:22.635Z,15.12
2022-09-25T22:33:54.438Z,15.08
2022-09-25T22:36:22.491Z,15.12
2022-09-25T22:38:52.381Z,15.10
2022-09-25T22:41:21.401Z,15.10
2022-09-25T22:43:50.441Z,15.11
2022-09-25T22:46:20.502Z,15.09
2022-09-25T22:48:48.696Z,15.08
2022-09-25T22:51:18.396Z,15.09
2022-09-25T22:53:46.370Z,15.11
2022-09-25T22:56:16.383Z,15.08
2022-09-25T22:58:46.755Z,15.06
2022-09-25T23:01:16.862Z,15.07
2022-09-25T23:03:45.963Z,15.04
2022-09-25T23:06:13.570Z,15.01
2022-09-25T23:08:41.246Z,15.03
2022-09-25T23:11:08.812Z,15.01
2022-09-25T23:13:37.210Z,15.02
2022-09-25T23:16:07.171Z,15.00
2022-09-25T23:18:36.609Z,14.97
2022-09-25T23:21:05.856Z,14.94
2022-09-25T23:23:34.438Z,14.90
2022-09-25T23:26:03.523Z,14.90
2022-09-25T23:28:32.951Z,14.90
2022-09-25T23:31:08.672Z,14.88
2022-09-25T23:33:36.614Z,14.88
2022-09-25T23:36:07.558Z,14.90
2022-09-25T23:38:35.935Z,14.88
2022-09-25T23:41:13.704Z,14.87
2022-09-25T23:43:42.154Z,14.84
2022-09-25T23:46:10.086Z,14.83
2022-09-25T23:48:38.022Z,14.82
2022-09-25T23:51:07.446Z,14.79
2022-09-25T23:53:36.043Z,14.74
2022-09-25T23:56:07.877Z,14.70
2022-09-25T23:58:35.872Z,14.70
